Time;durP1;ratioP1;P1;durP2;ratioP2;P2;SDS_P1;SDS_P2;PMS_P1;PMS_P2;Temp;Humidity;BMP_temperature;BMP_pressure;BME280_temperature;BME280_humidity;BME280_pressure;Samples;Min_cycle;Max_cycle;Signal;HPM_P1;HPM_P2
2021/10/09 00:01:05;;;;;;;12.45;10.70;;;;;;;12.69;69.27;102314.69;5012072;28;20101;-44
2021/10/09 00:03:31;;;;;;;10.15;9.07;;;;;;;12.68;68.98;102315.53;5011498;28;20029;-42
2021/10/09 00:05:56;;;;;;;11.10;9.80;;;;;;;12.68;69.29;102319.97;5012941;28;20022;-42
2021/10/09 00:08:21;;;;;;;11.15;10.05;;;;;;;12.68;69.19;102317.31;5011904;28;20476;-42
2021/10/09 00:10:47;;;;;;;13.35;10.20;;;;;;;12.68;69.45;102314.69;5011206;28;20026;-42
2021/10/09 00:13:13;;;;;;;11.25;10.13;;;;;;;12.66;69.39;102312.00;5012711;28;20071;-42
2021/10/09 00:15:39;;;;;;;12.35;10.18;;;;;;;12.67;69.02;102313.78;5009001;28;20022;-42
2021/10/09 00:18:04;;;;;;;11.07;9.85;;;;;;;12.65;69.12;102312.00;5011450;28;20033;-42
2021/10/09 00:20:30;;;;;;;13.43;9.75;;;;;;;12.66;68.88;102316.41;5011726;28;20496;-42
2021/10/09 00:22:56;;;;;;;12.13;9.63;;;;;;;12.65;68.82;102310.25;5012205;28;20523;-42
2021/10/09 00:25:21;;;;;;;12.48;9.70;;;;;;;12.65;69.08;102309.34;5008271;28;20058;-42
2021/10/09 00:27:46;;;;;;;12.18;9.80;;;;;;;12.63;69.12;102308.44;5011882;28;20033;-43
2021/10/09 00:30:12;;;;;;;11.00;9.90;;;;;;;12.64;68.71;102311.09;5009279;28;20036;-42
2021/10/09 00:32:37;;;;;;;12.68;9.45;;;;;;;12.64;69.05;102307.59;5012123;28;20639;-41
2021/10/09 00:35:03;;;;;;;13.25;9.80;;;;;;;12.64;68.86;102302.28;5012328;28;20071;-42
2021/10/09 00:37:28;;;;;;;13.52;10.48;;;;;;;12.63;68.89;102304.03;5011840;28;20476;-42
2021/10/09 00:39:53;;;;;;;10.57;9.05;;;;;;;12.62;68.82;102304.94;5011261;28;20101;-42
2021/10/09 00:42:19;;;;;;;14.45;11.02;;;;;;;12.62;68.80;102299.63;5011892;28;20099;-43
2021/10/09 00:44:44;;;;;;;11.13;9.68;;;;;;;12.61;68.89;102297.88;5011542;28;20033;-42
2021/10/09 00:47:09;;;;;;;11.65;10.07;;;;;;;12.61;68.91;102296.97;5011790;28;20017;-42
2021/10/09 00:49:35;;;;;;;14.05;10.00;;;;;;;12.60;68.98;102303.16;5010633;28;20033;-44
2021/10/09 00:52:03;;;;;;;11.43;9.77;;;;;;;12.60;69.00;102293.44;5011828;28;20041;-42
2021/10/09 00:54:29;;;;;;;10.63;9.45;;;;;;;12.60;68.75;102300.50;5010060;28;20060;-42
2021/10/09 00:56:58;;;;;;;12.77;9.90;;;;;;;12.59;68.90;102296.97;5011043;28;20068;-41
2021/10/09 00:59:25;;;;;;;11.02;9.77;;;;;;;12.58;68.74;102296.06;5010615;28;20025;-42
2021/10/09 01:01:51;;;;;;;10.85;9.75;;;;;;;12.58;68.72;102295.19;5009411;28;20024;-43
2021/10/09 01:04:17;;;;;;;10.20;9.10;;;;;;;12.58;68.80;102297.84;5011634;28;20021;-42
2021/10/09 01:06:42;;;;;;;12.55;9.50;;;;;;;12.57;68.87;102291.66;5011337;28;20049;-42
2021/10/09 01:09:08;;;;;;;11.55;9.15;;;;;;;12.54;68.67;102288.97;5010573;28;20399;-43
2021/10/09 01:11:34;;;;;;;12.18;9.90;;;;;;;12.56;68.79;102288.97;5010542;28;20022;-43
2021/10/09 01:13:59;;;;;;;12.75;10.15;;;;;;;12.56;68.90;102288.97;5009407;28;20073;-42
2021/10/09 01:16:27;;;;;;;11.00;9.90;;;;;;;12.55;68.72;102298.69;5011480;28;20057;-42
2021/10/09 01:18:54;;;;;;;10.38;9.25;;;;;;;12.54;68.82;102291.63;5005552;28;20578;-42
2021/10/09 01:21:21;;;;;;;12.15;9.23;;;;;;;12.55;68.74;102289.88;5010888;28;20049;-42
2021/10/09 01:23:46;;;;;;;11.55;9.38;;;;;;;12.53;68.83;102289.84;5009612;28;20052;-42
2021/10/09 01:26:12;;;;;;;10.48;9.38;;;;;;;12.54;68.75;102296.03;5007237;28;20423;-42
2021/10/09 01:28:39;;;;;;;9.57;8.57;;;;;;;12.51;68.72;102288.06;5009737;28;20026;-42
2021/10/09 01:31:20;;;;;;;12.35;9.88;;;;;;;12.53;68.55;102294.25;5008476;28;20026;-43
2021/10/09 01:33:45;;;;;;;12.77;9.98;;;;;;;12.52;68.55;102287.19;5007420;28;20037;-43
2021/10/09 01:36:11;;;;;;;11.02;9.50;;;;;;;12.51;68.40;102288.06;5009300;28;20033;-44
2021/10/09 01:38:38;;;;;;;11.23;9.13;;;;;;;12.51;68.43;102296.00;5009384;28;20021;-42
2021/10/09 01:41:05;;;;;;;13.10;9.98;;;;;;;12.50;68.66;102294.25;5011155;28;20698;-42
2021/10/09 01:43:31;;;;;;;9.73;8.55;;;;;;;12.49;68.61;102287.16;5010798;28;20026;-43
2021/10/09 01:45:56;;;;;;;11.55;9.32;;;;;;;12.49;68.56;102295.09;5010492;28;20155;-42
2021/10/09 01:48:32;;;;;;;10.98;9.77;;;;;;;12.48;68.33;102288.03;5010288;28;20507;-42
2021/10/09 01:50:58;;;;;;;10.38;9.25;;;;;;;12.48;68.62;102285.38;5009913;28;20061;-43
2021/10/09 01:53:23;;;;;;;14.20;10.10;;;;;;;12.45;68.29;102281.81;5010603;28;20526;-42
2021/10/09 01:55:49;;;;;;;11.27;9.55;;;;;;;12.45;68.52;102283.59;5013848;28;20472;-42
2021/10/09 01:58:15;;;;;;;10.70;8.77;;;;;;;12.44;68.53;102281.84;5014755;28;20112;-42
2021/10/09 02:00:41;;;;;;;12.40;9.05;;;;;;;12.44;68.21;102280.06;5013670;28;20056;-42
2021/10/09 02:03:07;;;;;;;12.68;9.48;;;;;;;12.42;68.46;102281.81;5015461;28;20042;-43
2021/10/09 02:05:36;;;;;;;13.63;9.07;;;;;;;12.43;68.47;102288.88;5008679;28;20084;-42
2021/10/09 02:08:03;;;;;;;12.07;10.38;;;;;;;12.43;68.15;102285.34;5012009;28;20522;-42
2021/10/09 02:10:28;;;;;;;12.25;9.57;;;;;;;12.42;68.37;102288.88;5014455;28;20088;-42
2021/10/09 02:12:55;;;;;;;10.90;9.52;;;;;;;12.41;68.55;102295.03;5014753;28;20029;-42
2021/10/09 02:15:33;;;;;;;12.48;8.90;;;;;;;12.42;68.20;102291.50;5014513;28;20030;-42
2021/10/09 02:26:10;;;;;;;9.57;8.55;;;;;;;12.37;68.00;102294.09;5014655;28;20537;-42
2021/10/09 02:28:35;;;;;;;11.85;9.73;;;;;;;12.37;68.12;102288.81;5014251;28;20112;-42
2021/10/09 02:31:01;;;;;;;9.75;8.35;;;;;;;12.36;68.10;102286.16;5013924;28;20076;-42
2021/10/09 02:33:26;;;;;;;11.60;9.05;;;;;;;12.35;68.27;102285.28;5014702;28;20022;-43
2021/10/09 02:35:51;;;;;;;10.02;8.93;;;;;;;12.35;68.07;102285.28;5013816;28;20065;-42
2021/10/09 02:38:17;;;;;;;13.23;9.15;;;;;;;12.35;68.06;102285.28;5013424;28;20030;-43
2021/10/09 02:40:44;;;;;;;10.55;9.30;;;;;;;12.35;67.96;102290.56;5014242;28;20076;-42
2021/10/09 02:43:10;;;;;;;11.70;8.80;;;;;;;12.35;68.14;102284.38;5014144;28;20021;-42
2021/10/09 02:45:35;;;;;;;10.93;9.25;;;;;;;12.34;68.17;102298.50;5010326;28;20032;-42
2021/10/09 02:48:02;;;;;;;12.18;9.20;;;;;;;12.32;68.02;102286.16;5013414;28;20021;-42
2021/10/09 02:50:29;;;;;;;15.40;10.07;;;;;;;12.32;68.13;102285.25;5011056;28;20037;-41
2021/10/09 02:52:55;;;;;;;11.98;8.80;;;;;;;12.32;68.04;102290.53;5013502;28;20026;-43
2021/10/09 02:55:20;;;;;;;12.40;10.05;;;;;;;12.31;68.23;102296.72;5013671;28;20029;-42
2021/10/09 02:58:04;;;;;;;11.38;9.07;;;;;;;12.31;68.16;102296.72;5012567;28;20026;-43
2021/10/09 03:00:30;;;;;;;10.55;9.25;;;;;;;12.30;68.11;102297.56;5011863;28;20076;-43
2021/10/09 03:02:55;;;;;;;12.10;9.23;;;;;;;12.28;67.84;102297.53;5012772;28;20029;-42
2021/10/09 03:05:27;;;;;;;11.95;9.45;;;;;;;12.29;68.12;102295.78;5012746;28;20392;-43
2021/10/09 03:07:52;;;;;;;11.02;9.93;;;;;;;12.29;67.97;102301.09;5011328;28;20038;-42
2021/10/09 03:10:18;;;;;;;10.65;9.57;;;;;;;12.27;68.15;102301.06;5012814;28;20034;-42
2021/10/09 03:12:44;;;;;;;11.98;8.45;;;;;;;12.26;68.09;102291.38;5013445;28;20079;-42
2021/10/09 03:15:10;;;;;;;11.70;9.02;;;;;;;12.25;67.99;102304.56;5012703;28;20451;-42
2021/10/09 03:17:37;;;;;;;10.77;9.48;;;;;;;12.25;67.99;102294.91;5010428;28;20137;-42
2021/10/09 03:20:04;;;;;;;9.65;8.75;;;;;;;12.26;68.07;102306.34;5010391;28;20030;-43
2021/10/09 03:22:31;;;;;;;11.27;8.90;;;;;;;12.25;67.74;102299.28;5010851;28;20022;-42
2021/10/09 03:24:56;;;;;;;10.43;8.60;;;;;;;12.23;68.04;102306.31;5010234;28;20041;-42
2021/10/09 03:27:21;;;;;;;12.57;9.70;;;;;;;12.22;67.72;102296.59;5012066;28;20021;-44
2021/10/09 03:29:47;;;;;;;10.00;8.57;;;;;;;12.24;67.73;102316.03;5012060;28;20123;-41
2021/10/09 03:32:12;;;;;;;11.82;9.18;;;;;;;12.22;67.61;102309.81;5012162;28;20495;-43
2021/10/09 03:34:37;;;;;;;11.50;9.13;;;;;;;12.22;67.81;102315.13;5012414;28;20057;-43
2021/10/09 03:37:04;;;;;;;9.95;8.52;;;;;;;12.21;67.88;102316.00;5011866;28;20034;-43
2021/10/09 03:39:31;;;;;;;10.70;9.02;;;;;;;12.19;67.67;102308.94;5010299;28;20475;-42
2021/10/09 03:42:03;;;;;;;9.10;8.20;;;;;;;12.18;67.75;102315.09;5012263;28;20029;-42
2021/10/09 03:44:31;;;;;;;10.60;9.50;;;;;;;12.17;67.83;102313.31;5012719;28;20514;-43
2021/10/09 03:47:19;;;;;;;10.15;9.05;;;;;;;12.16;67.79;102310.66;5012992;28;20037;-42
2021/10/09 03:52:38;;;;;;;11.70;9.27;;;;;;;12.15;67.62;102311.53;5009359;28;20097;-42
2021/10/09 03:55:09;;;;;;;15.20;9.90;;;;;;;12.14;67.90;102313.28;5007808;28;20044;-42
2021/10/09 03:57:35;;;;;;;14.02;9.45;;;;;;;12.13;67.84;102310.63;5009385;28;20416;-43
2021/10/09 04:00:00;;;;;;;11.45;8.63;;;;;;;12.13;67.54;102311.50;5012311;28;20021;-42
2021/10/09 04:02:25;;;;;;;10.45;8.88;;;;;;;12.12;68.04;102315.03;5012506;28;20038;-42
2021/10/09 04:04:51;;;;;;;10.43;8.75;;;;;;;12.11;67.44;102313.28;5011229;28;20026;-41
2021/10/09 04:07:16;;;;;;;10.15;9.07;;;;;;;12.11;67.54;102329.16;5008760;28;20113;-43
2021/10/09 04:09:41;;;;;;;9.63;8.45;;;;;;;12.10;67.54;102322.06;5011580;28;20025;-43
2021/10/09 04:12:07;;;;;;;11.85;8.98;;;;;;;12.08;67.48;102313.22;5011787;28;20029;-43
2021/10/09 04:14:32;;;;;;;11.23;9.27;;;;;;;12.10;67.54;102321.19;5011766;28;20033;-43
2021/10/09 04:16:57;;;;;;;9.38;8.38;;;;;;;12.08;67.50;102313.22;5011321;28;20088;-42
2021/10/09 04:19:23;;;;;;;11.73;9.63;;;;;;;12.08;67.34;102317.63;5011511;28;20037;-43
2021/10/09 04:21:48;;;;;;;10.43;9.05;;;;;;;12.08;67.50;102328.19;5012044;28;20046;-42
2021/10/09 04:24:18;;;;;;;11.50;9.15;;;;;;;12.07;67.63;102329.94;5012387;28;20029;-43
2021/10/09 04:26:43;;;;;;;11.73;9.50;;;;;;;12.05;67.58;102329.94;5011461;28;20026;-43
2021/10/09 04:29:08;;;;;;;10.77;8.77;;;;;;;12.05;67.27;102326.38;5010241;28;20603;-42
2021/10/09 04:31:33;;;;;;;12.18;9.40;;;;;;;12.05;67.26;102331.66;5011525;28;20437;-42
2021/10/09 04:33:59;;;;;;;12.02;9.10;;;;;;;12.04;67.31;102327.25;5011458;28;20030;-42
2021/10/09 04:36:24;;;;;;;10.25;9.05;;;;;;;12.02;67.30;102328.97;5010853;28;20385;-45
2021/10/09 04:38:49;;;;;;;10.07;8.95;;;;;;;12.03;67.34;102328.09;5011492;28;20030;-43
2021/10/09 04:41:15;;;;;;;10.65;9.48;;;;;;;12.01;67.63;102332.50;5009663;28;20376;-42
2021/10/09 04:43:41;;;;;;;10.48;8.63;;;;;;;12.00;67.23;102330.75;5011534;28;21363;-42
2021/10/09 04:46:06;;;;;;;10.57;8.90;;;;;;;12.00;67.48;102336.03;5010351;28;20128;-42
2021/10/09 04:48:32;;;;;;;11.13;8.95;;;;;;;11.99;67.27;102339.53;5009320;28;20112;-42
2021/10/09 04:50:57;;;;;;;10.55;9.32;;;;;;;11.99;67.57;102329.84;5011007;28;20030;-44
2021/10/09 04:53:23;;;;;;;9.93;8.30;;;;;;;11.97;67.33;102331.56;5011688;28;20030;-43
2021/10/09 04:55:48;;;;;;;10.30;8.40;;;;;;;11.96;67.08;102335.09;5010930;28;20034;-43
2021/10/09 04:58:13;;;;;;;10.40;8.50;;;;;;;11.98;67.36;102332.47;5009407;28;20022;-43
2021/10/09 05:00:39;;;;;;;11.00;9.05;;;;;;;11.96;67.25;102331.53;5010193;28;20018;-42
2021/10/09 05:03:04;;;;;;;10.15;9.05;;;;;;;11.96;67.46;102339.47;5010174;28;20030;-42
2021/10/09 05:05:29;;;;;;;10.23;8.90;;;;;;;11.96;67.33;102334.19;5010004;28;20502;-42
2021/10/09 05:07:55;;;;;;;13.45;8.98;;;;;;;11.94;67.11;102334.19;5010487;28;20025;-42
2021/10/09 05:10:21;;;;;;;10.35;8.38;;;;;;;11.93;67.42;102341.22;5010058;28;20447;-43
2021/10/09 05:12:46;;;;;;;13.88;10.13;;;;;;;11.92;67.25;102342.13;5010880;28;20038;-41
2021/10/09 05:15:12;;;;;;;9.40;8.23;;;;;;;11.91;67.21;102342.97;5010414;28;20041;-42
2021/10/09 05:17:38;;;;;;;9.90;8.20;;;;;;;11.91;66.93;102342.09;5011518;28;20061;-42
2021/10/09 05:20:04;;;;;;;13.50;9.68;;;;;;;11.90;67.21;102345.56;5007328;28;20049;-42
2021/10/09 05:22:30;;;;;;;10.93;9.45;;;;;;;11.89;66.83;102344.72;5010732;28;20109;-42
2021/10/09 05:24:56;;;;;;;9.65;8.40;;;;;;;11.90;67.41;102348.22;5010297;28;20072;-41
2021/10/09 05:27:21;;;;;;;10.23;8.77;;;;;;;11.88;67.20;102345.59;5010688;28;20017;-42
2021/10/09 05:29:48;;;;;;;11.27;8.75;;;;;;;11.88;67.02;102352.63;5008955;28;20030;-44
2021/10/09 05:32:20;;;;;;;10.57;8.75;;;;;;;11.87;67.07;102357.00;5010119;28;20476;-42
2021/10/09 05:34:46;;;;;;;9.35;8.32;;;;;;;11.86;66.99;102360.53;5009246;28;20034;-42
2021/10/09 05:37:27;;;;;;;9.80;8.80;;;;;;;11.85;66.93;102355.22;5010194;28;20033;-43
2021/10/09 05:39:52;;;;;;;10.10;9.02;;;;;;;11.85;66.87;102358.75;5010436;28;20604;-42
2021/10/09 05:42:17;;;;;;;10.77;9.10;;;;;;;11.84;67.06;102361.38;5010340;28;20040;-42
2021/10/09 05:44:46;;;;;;;11.75;9.73;;;;;;;11.83;66.93;102360.50;5008887;28;20037;-41
2021/10/09 05:47:11;;;;;;;11.43;9.60;;;;;;;11.81;66.98;102363.09;5010580;28;20748;-42
2021/10/09 05:49:38;;;;;;;10.57;9.00;;;;;;;11.81;66.93;102364.88;5007561;28;20626;-42
2021/10/09 05:52:10;;;;;;;14.55;9.23;;;;;;;11.80;67.14;102371.91;5010068;28;20030;-42
2021/10/09 05:54:44;;;;;;;13.32;9.30;;;;;;;11.81;67.10;102378.09;5010079;28;20053;-41
2021/10/09 05:57:23;;;;;;;10.80;9.15;;;;;;;11.80;66.75;102373.66;5010119;28;20049;-42
2021/10/09 06:00:10;;;;;;;10.32;9.05;;;;;;;11.78;67.15;102378.06;5009302;28;20136;-41
2021/10/09 06:44:13;;;;;;;12.57;9.23;;;;;;;11.66;67.06;102390.25;5006376;28;20419;-42
2021/10/09 06:59:44;;;;;;;28.83;25.30;;;;;;;11.64;66.94;102405.16;5011394;28;20072;-41
2021/10/09 07:02:11;;;;;;;30.77;25.88;;;;;;;11.62;67.06;102404.28;5009712;28;20117;-42
2021/10/09 07:04:36;;;;;;;30.52;26.88;;;;;;;11.64;67.08;102418.38;5012431;28;20034;-41
2021/10/09 07:07:05;;;;;;;29.60;26.13;;;;;;;11.61;66.73;102418.34;5012067;28;20044;-41
2021/10/09 07:09:30;;;;;;;31.08;26.77;;;;;;;11.61;66.88;102412.19;5010039;28;20052;-42
2021/10/09 07:11:55;;;;;;;31.35;26.13;;;;;;;11.61;66.87;102405.13;5010979;28;20401;-42
2021/10/09 07:14:21;;;;;;;31.60;27.08;;;;;;;11.61;66.78;102415.69;5005840;28;20037;-42
2021/10/09 07:16:46;;;;;;;27.27;24.30;;;;;;;11.59;67.03;102409.50;5010632;28;20033;-42
2021/10/09 07:19:11;;;;;;;28.02;25.05;;;;;;;11.59;67.00;102409.50;5011937;28;20026;-43
2021/10/09 07:21:37;;;;;;;31.13;25.55;;;;;;;11.59;67.01;102409.50;5012972;28;20705;-41
2021/10/09 07:24:02;;;;;;;28.13;24.55;;;;;;;11.57;67.00;102410.38;5011701;28;20491;-43
2021/10/09 07:26:28;;;;;;;27.27;24.05;;;;;;;11.58;67.04;102420.06;5010547;28;20599;-41
2021/10/09 07:28:53;;;;;;;27.40;22.75;;;;;;;11.59;67.13;102419.19;5011446;28;20030;-42
2021/10/09 07:31:18;;;;;;;28.42;22.92;;;;;;;11.58;66.89;102428.00;5012162;28;20033;-42
2021/10/09 07:33:44;;;;;;;25.42;21.17;;;;;;;11.56;67.12;102425.31;5012252;28;20036;-43
2021/10/09 07:36:09;;;;;;;25.02;21.63;;;;;;;11.55;66.96;102429.69;5010577;28;20033;-41
2021/10/09 07:38:35;;;;;;;24.98;21.42;;;;;;;11.56;66.92;102430.59;5008054;28;20025;-42
2021/10/09 07:41:00;;;;;;;22.85;20.20;;;;;;;11.55;67.07;102418.25;5008832;28;20014;-42
2021/10/09 07:43:26;;;;;;;25.08;21.40;;;;;;;11.57;67.02;102426.22;5010237;28;20041;-42
2021/10/09 07:45:51;;;;;;;25.17;21.83;;;;;;;11.54;67.05;102421.78;5012003;28;20112;-42
2021/10/09 07:48:16;;;;;;;23.65;20.55;;;;;;;11.53;66.92;102425.25;5006651;28;20053;-43
2021/10/09 07:50:42;;;;;;;23.23;19.90;;;;;;;11.53;67.10;102430.56;5010144;28;20030;-42
2021/10/09 07:53:07;;;;;;;23.20;19.45;;;;;;;11.52;67.01;102429.69;5011062;28;20041;-41
2021/10/09 07:55:32;;;;;;;21.52;18.75;;;;;;;11.52;66.86;102428.78;5012323;28;20037;-41
2021/10/09 07:57:57;;;;;;;25.67;20.02;;;;;;;11.53;66.85;102435.84;5010921;28;20026;-42
2021/10/09 08:00:23;;;;;;;21.73;18.92;;;;;;;11.54;67.05;102427.06;5012276;28;20033;-42
2021/10/09 08:02:50;;;;;;;19.90;17.55;;;;;;;11.53;66.77;102427.91;5012175;28;20523;-42
2021/10/09 08:05:15;;;;;;;22.52;17.80;;;;;;;11.52;66.96;102431.44;5009664;28;20029;-41
2021/10/09 08:07:41;;;;;;;19.70;17.60;;;;;;;11.51;66.92;102422.59;5009869;28;20028;-41
2021/10/09 08:10:07;;;;;;;22.60;17.92;;;;;;;11.52;67.10;102428.78;5010417;28;20431;-42
2021/10/09 08:12:32;;;;;;;20.85;17.58;;;;;;;11.52;66.79;102423.50;5011893;28;20113;-41
2021/10/09 08:14:57;;;;;;;21.02;17.15;;;;;;;11.50;66.86;102417.28;5011756;28;20038;-42
2021/10/09 08:17:23;;;;;;;20.90;17.35;;;;;;;11.49;67.05;102413.78;5006244;28;20049;-42
2021/10/09 08:19:48;;;;;;;22.60;17.17;;;;;;;11.51;66.87;102422.59;5012041;28;20038;-42
2021/10/09 08:22:14;;;;;;;20.52;17.45;;;;;;;11.50;67.04;102420.84;5010723;28;20014;-43
2021/10/09 08:24:46;;;;;;;19.92;17.25;;;;;;;11.50;67.01;102414.66;5011333;28;20018;-42
2021/10/09 08:40:41;;;;;;;17.83;15.07;;;;;;;11.47;66.74;102420.78;5010908;28;20032;-42
2021/10/09 08:43:06;;;;;;;17.63;14.73;;;;;;;11.46;66.79;102403.16;5012462;28;20210;-42
2021/10/09 08:45:32;;;;;;;20.40;14.85;;;;;;;11.47;66.62;102412.84;5008282;28;20041;-42
2021/10/09 08:47:57;;;;;;;19.27;14.57;;;;;;;11.46;67.04;102413.72;5007366;28;20030;-42
2021/10/09 08:50:22;;;;;;;17.10;13.95;;;;;;;11.46;66.72;102419.00;5006391;28;20058;-42
2021/10/09 08:53:12;;;;;;;15.57;13.40;;;;;;;11.47;67.07;102414.63;5008778;28;20087;-42
2021/10/09 08:55:39;;;;;;;16.50;13.95;;;;;;;11.45;66.73;102422.53;5003682;28;20036;-42
2021/10/09 08:58:09;;;;;;;18.52;14.18;;;;;;;11.46;66.73;102423.38;5006200;28;20029;-43
2021/10/09 09:00:47;;;;;;;17.08;14.05;;;;;;;11.46;66.77;102424.28;5006231;28;20038;-42
2021/10/09 09:03:17;;;;;;;17.52;15.23;;;;;;;11.45;66.67;102421.63;5009054;28;20040;-42
2021/10/09 09:06:00;;;;;;;17.92;13.52;;;;;;;11.45;67.10;102427.81;5008693;28;20038;-42
2021/10/09 09:08:46;;;;;;;15.68;13.75;;;;;;;11.46;66.63;102431.31;5007889;28;20132;-42
2021/10/09 09:25:49;;;;;;;15.13;12.65;;;;;;;11.40;66.82;102425.09;5007349;28;20037;-42
2021/10/09 09:34:03;;;;;;;15.55;12.52;;;;;;;11.41;66.80;102423.34;5010603;28;20099;-43
2021/10/09 09:36:41;;;;;;;14.60;13.05;;;;;;;11.40;66.82;102418.91;5007790;28;20057;-43
2021/10/09 09:39:13;;;;;;;16.60;13.02;;;;;;;11.39;66.71;102414.50;5009105;28;20626;-43
2021/10/09 09:41:45;;;;;;;16.98;13.55;;;;;;;11.39;66.99;102412.75;5005737;28;20029;-43
2021/10/09 09:44:12;;;;;;;17.77;12.90;;;;;;;11.38;66.92;102420.66;5007099;28;20037;-43
2021/10/09 09:46:37;;;;;;;18.45;13.25;;;;;;;11.38;66.77;102418.00;5007081;28;20076;-42
2021/10/09 09:49:03;;;;;;;17.80;13.35;;;;;;;11.38;66.61;102416.25;5007311;28;20679;-42
2021/10/09 09:51:28;;;;;;;17.73;12.38;;;;;;;11.37;66.78;102414.47;5007054;28;20117;-42
2021/10/09 09:53:55;;;;;;;17.55;12.48;;;;;;;11.38;66.98;102412.72;5004438;28;20040;-42
2021/10/09 09:56:20;;;;;;;17.50;12.63;;;;;;;11.37;66.56;102410.97;5000615;28;20026;-43
2021/10/09 09:58:54;;;;;;;17.08;12.95;;;;;;;11.37;66.75;102403.91;5019220;28;20048;-42
2021/10/09 10:01:21;;;;;;;14.98;12.98;;;;;;;11.36;66.93;102407.41;5002950;28;20474;-42
2021/10/09 10:03:47;;;;;;;15.82;12.88;;;;;;;11.37;66.65;102410.97;5002673;28;20029;-41
2021/10/09 10:06:14;;;;;;;14.23;11.68;;;;;;;11.37;66.98;102413.59;5005647;28;20056;-45
2021/10/09 10:08:41;;;;;;;15.55;12.65;;;;;;;11.36;67.08;102409.16;5021567;28;20038;-42
2021/10/09 10:11:08;;;;;;;14.02;12.32;;;;;;;11.36;66.89;102423.25;5007363;28;20045;-42
2021/10/09 10:13:35;;;;;;;16.05;12.15;;;;;;;11.37;67.03;102418.88;5006285;28;20022;-41
2021/10/09 10:16:05;;;;;;;15.52;11.57;;;;;;;11.36;66.78;102417.09;5004974;28;20801;-42
2021/10/09 10:18:48;;;;;;;16.25;11.95;;;;;;;11.37;67.01;102411.81;5006880;28;20037;-42
2021/10/09 10:21:17;;;;;;;15.35;12.13;;;;;;;11.35;66.93;102413.56;5013319;28;20109;-42
2021/10/09 10:23:44;;;;;;;15.50;12.70;;;;;;;11.34;66.85;102406.50;5009317;28;20534;-42
2021/10/09 10:26:18;;;;;;;16.10;12.50;;;;;;;11.35;66.82;102404.75;5011548;28;20045;-45
2021/10/09 10:28:47;;;;;;;13.93;11.40;;;;;;;11.35;66.90;102405.66;5006641;28;20021;-42
2021/10/09 10:31:16;;;;;;;14.88;12.13;;;;;;;11.33;66.64;102407.38;5007758;28;20037;-42
2021/10/09 10:33:43;;;;;;;15.43;12.93;;;;;;;11.34;66.71;102406.50;5011648;28;20034;-42
2021/10/09 10:36:13;;;;;;;13.10;11.70;;;;;;;11.34;67.25;102405.63;5012792;28;20021;-42
2021/10/09 10:38:46;;;;;;;13.85;11.88;;;;;;;11.33;67.12;102404.72;5009627;28;20034;-43
2021/10/09 10:41:16;;;;;;;14.57;12.10;;;;;;;11.32;66.89;102408.22;5012425;28;20036;-42
2021/10/09 10:43:59;;;;;;;16.13;12.57;;;;;;;11.33;66.93;102401.22;5008721;28;20030;-43
2021/10/09 10:46:44;;;;;;;16.25;11.57;;;;;;;11.32;67.11;102400.31;5011612;28;20097;-42
2021/10/09 10:49:36;;;;;;;15.48;12.23;;;;;;;11.32;67.11;102402.94;5009619;28;20415;-42
2021/10/09 10:54:37;;;;;;;15.02;11.82;;;;;;;11.31;67.05;102408.22;5006985;28;20026;-42
2021/10/09 10:57:06;;;;;;;15.95;12.30;;;;;;;11.32;67.20;102409.97;5008790;28;20088;-43
2021/10/09 10:59:59;;;;;;;14.38;11.50;;;;;;;11.29;67.25;102398.50;5003149;28;20052;-43
2021/10/09 11:02:36;;;;;;;15.68;11.55;;;;;;;11.30;67.23;102404.66;5009711;28;20033;-42
2021/10/09 11:05:04;;;;;;;14.73;11.75;;;;;;;11.31;67.24;102401.19;5006423;28;20116;-42
2021/10/09 11:07:36;;;;;;;16.02;11.88;;;;;;;11.28;67.24;102396.72;5004181;28;20504;-42
2021/10/09 11:10:10;;;;;;;14.70;11.40;;;;;;;11.31;67.01;102397.63;5007740;28;20488;-42
2021/10/09 11:12:40;;;;;;;15.15;11.35;;;;;;;11.29;66.93;102400.25;5007378;28;20026;-43
2021/10/09 11:15:17;;;;;;;15.18;12.00;;;;;;;11.28;67.13;102396.72;5004969;28;20110;-45
2021/10/09 11:17:46;;;;;;;12.43;11.02;;;;;;;11.29;67.08;102392.34;5000998;28;20112;-42
2021/10/09 11:20:22;;;;;;;14.57;11.20;;;;;;;11.28;67.13;102394.06;5009581;28;20018;-42
2021/10/09 11:22:49;;;;;;;15.38;11.27;;;;;;;11.30;67.10;102396.75;5008845;28;20025;-41
2021/10/09 11:25:36;;;;;;;15.27;11.77;;;;;;;11.30;67.11;102386.19;5009973;28;20025;-43
2021/10/09 11:28:04;;;;;;;14.35;11.57;;;;;;;11.29;67.09;102385.31;5008836;28;20705;-42
2021/10/09 11:30:30;;;;;;;14.25;10.93;;;;;;;11.30;67.19;102383.53;5009025;28;20030;-42
2021/10/09 11:32:56;;;;;;;12.60;10.57;;;;;;;11.29;66.97;102379.13;5008926;28;20512;-42
2021/10/09 11:35:38;;;;;;;13.70;11.60;;;;;;;11.30;67.14;102375.59;5007840;28;20040;-42
2021/10/09 11:38:06;;;;;;;16.20;11.20;;;;;;;11.29;66.78;102379.13;5008413;28;20495;-43
2021/10/09 11:40:41;;;;;;;12.70;10.05;;;;;;;11.29;66.91;102371.19;5007627;28;20538;-43
2021/10/09 11:45:51;;;;;;;12.80;10.10;;;;;;;11.27;67.01;102373.81;5012076;28;20030;-43
2021/10/09 11:54:49;;;;;;;13.88;10.07;;;;;;;11.27;67.18;102365.03;5010724;28;20500;-43
2021/10/09 11:57:12;;;;;;;10.95;9.80;;;;;;;11.27;67.30;102362.38;5010425;28;20109;-43
2021/10/09 11:59:41;;;;;;;11.27;9.95;;;;;;;11.26;67.09;102369.41;5010713;28;20108;-43
2021/10/09 12:02:07;;;;;;;11.50;9.80;;;;;;;11.27;67.08;102360.59;5010663;28;20014;-43
2021/10/09 12:04:33;;;;;;;11.05;9.38;;;;;;;11.26;67.24;102366.75;5011772;28;20033;-43
2021/10/09 12:07:09;;;;;;;12.82;10.35;;;;;;;11.26;67.04;102361.47;5009946;28;20037;-43
2021/10/09 12:09:40;;;;;;;12.27;9.43;;;;;;;11.27;67.14;102362.38;5008341;28;20088;-43
2021/10/09 12:12:31;;;;;;;13.18;9.98;;;;;;;11.26;66.97;102361.47;5009091;28;20030;-43
2021/10/09 12:14:56;;;;;;;13.00;8.93;;;;;;;11.26;67.11;102358.84;5010496;28;20034;-43
2021/10/09 12:17:22;;;;;;;10.68;8.70;;;;;;;11.26;67.23;102358.84;5011381;28;20033;-42
2021/10/09 12:19:58;;;;;;;10.50;9.13;;;;;;;11.26;67.27;102353.56;5008486;28;20037;-44
2021/10/09 12:22:24;;;;;;;10.30;8.60;;;;;;;11.26;67.22;102347.38;5010979;28;20068;-43
2021/10/09 12:24:52;;;;;;;10.48;8.30;;;;;;;11.27;66.88;102346.53;5010394;28;20029;-44
2021/10/09 12:27:22;;;;;;;9.88;8.50;;;;;;;11.27;66.84;102343.91;5010099;28;20790;-43
2021/10/09 12:30:12;;;;;;;10.98;9.13;;;;;;;11.28;66.89;102345.66;5005030;28;20033;-43
2021/10/09 12:32:41;;;;;;;10.07;9.00;;;;;;;11.28;66.93;102340.38;5007627;28;20026;-44
2021/10/09 12:35:32;;;;;;;16.48;8.07;;;;;;;11.31;66.34;102340.44;5008366;28;20450;-41
2021/10/09 12:38:00;;;;;;;10.98;8.20;;;;;;;11.31;65.54;102331.59;4998634;28;20499;-44
2021/10/09 12:40:27;;;;;;;9.82;7.50;;;;;;;11.31;65.91;102324.56;5009003;28;20434;-41
2021/10/09 12:42:55;;;;;;;10.40;7.25;;;;;;;11.30;65.76;102328.06;5007867;28;20029;-42
2021/10/09 12:45:24;;;;;;;10.00;7.35;;;;;;;11.30;66.07;102320.13;5009368;28;20117;-41
2021/10/09 12:47:49;;;;;;;11.07;8.10;;;;;;;11.31;66.16;102316.66;5010854;28;20025;-43
2021/10/09 12:50:18;;;;;;;10.05;7.22;;;;;;;11.31;66.05;102323.69;5009633;28;20383;-42
2021/10/09 12:52:45;;;;;;;10.13;7.70;;;;;;;11.31;65.84;102315.75;5009172;28;20060;-42
2021/10/09 12:55:13;;;;;;;11.02;7.00;;;;;;;11.31;65.92;102308.72;5011081;28;20045;-43
2021/10/09 12:57:47;;;;;;;8.40;7.53;;;;;;;11.31;65.77;102314.00;5012145;28;20881;-43
2021/10/09 13:00:12;;;;;;;11.73;6.53;;;;;;;11.31;65.74;102310.47;5009963;28;20484;-43
2021/10/09 13:02:37;;;;;;;9.57;6.93;;;;;;;11.29;65.52;102314.00;5010229;28;20036;-43
2021/10/09 13:05:03;;;;;;;9.32;7.00;;;;;;;11.29;65.83;102306.06;5010468;28;20029;-42
2021/10/09 13:07:28;;;;;;;13.82;7.30;;;;;;;11.31;66.06;102303.44;5009223;28;20029;-42
2021/10/09 13:10:00;;;;;;;10.15;6.97;;;;;;;11.30;65.77;102306.94;5010150;28;20029;-41